sensor_id;sensor_type;location;lat;lon;timestamp;temperature;humidity
52495;DHT22;38405;53.212;5.660;2023-10-19T00:00:42;8.50;99.90
52495;DHT22;38405;53.212;5.660;2023-10-19T00:03:11;8.10;99.90
52495;DHT22;38405;53.212;5.660;2023-10-19T00:05:38;8.10;99.90
52495;DHT22;38405;53.212;5.660;2023-10-19T00:08:06;8.10;99.90
52495;DHT22;38405;53.212;5.660;2023-10-19T00:10:43;8.10;99.90
52495;DHT22;38405;53.212;5.660;2023-10-19T00:13:13;8.10;99.90
52495;DHT22;38405;53.212;5.660;2023-10-19T00:15:43;8.00;99.90
52495;DHT22;38405;53.212;5.660;2023-10-19T00:18:19;8.10;99.90
52495;DHT22;38405;53.212;5.660;2023-10-19T00:20:52;8.10;99.90
52495;DHT22;38405;53.212;5.660;2023-10-19T00:23:23;8.00;99.90
52495;DHT22;38405;53.212;5.660;2023-10-19T00:25:59;8.00;99.90
52495;DHT22;38405;53.212;5.660;2023-10-19T00:28:26;8.00;99.90
52495;DHT22;38405;53.212;5.660;2023-10-19T00:30:54;8.00;99.90
52495;DHT22;38405;53.212;5.660;2023-10-19T00:33:25;8.10;99.90
52495;DHT22;38405;53.212;5.660;2023-10-19T00:35:54;8.00;99.90
52495;DHT22;38405;53.212;5.660;2023-10-19T00:38:25;8.00;99.90
52495;DHT22;38405;53.212;5.660;2023-10-19T00:41:04;8.20;99.90
52495;DHT22;38405;53.212;5.660;2023-10-19T00:43:37;8.00;99.90
52495;DHT22;38405;53.212;5.660;2023-10-19T00:46:12;8.00;99.90
52495;DHT22;38405;53.212;5.660;2023-10-19T00:48:52;8.00;99.90
52495;DHT22;38405;53.212;5.660;2023-10-19T00:51:21;8.00;99.90
52495;DHT22;38405;53.212;5.660;2023-10-19T00:54:11;8.10;99.90
52495;DHT22;38405;53.212;5.660;2023-10-19T00:56:46;8.00;99.90
52495;DHT22;38405;53.212;5.660;2023-10-19T00:59:18;8.00;99.90
52495;DHT22;38405;53.212;5.660;2023-10-19T01:01:53;8.00;99.90
52495;DHT22;38405;53.212;5.660;2023-10-19T01:04:37;8.00;99.90
52495;DHT22;38405;53.212;5.660;2023-10-19T01:07:10;8.00;99.90
52495;DHT22;38405;53.212;5.660;2023-10-19T01:10:03;8.00;99.90
52495;DHT22;38405;53.212;5.660;2023-10-19T01:12:33;8.00;99.90
52495;DHT22;38405;53.212;5.660;2023-10-19T01:17:50;8.20;99.90
52495;DHT22;38405;53.212;5.660;2023-10-19T01:20:27;8.30;99.90
52495;DHT22;38405;53.212;5.660;2023-10-19T01:23:04;8.00;99.90
52495;DHT22;38405;53.212;5.660;2023-10-19T01:25:55;8.00;99.90
52495;DHT22;38405;53.212;5.660;2023-10-19T01:28:42;8.00;99.90
52495;DHT22;38405;53.212;5.660;2023-10-19T01:31:09;8.00;99.90
52495;DHT22;38405;53.212;5.660;2023-10-19T01:33:40;8.00;99.90
52495;DHT22;38405;53.212;5.660;2023-10-19T01:36:08;8.00;99.90
52495;DHT22;38405;53.212;5.660;2023-10-19T01:38:36;8.00;99.90
52495;DHT22;38405;53.212;5.660;2023-10-19T01:41:04;8.00;99.90
52495;DHT22;38405;53.212;5.660;2023-10-19T01:43:51;8.00;99.90
52495;DHT22;38405;53.212;5.660;2023-10-19T01:46:21;8.00;99.90
52495;DHT22;38405;53.212;5.660;2023-10-19T01:49:03;8.00;99.90
52495;DHT22;38405;53.212;5.660;2023-10-19T01:51:31;8.00;99.90
52495;DHT22;38405;53.212;5.660;2023-10-19T01:53:58;8.00;99.90
52495;DHT22;38405;53.212;5.660;2023-10-19T01:56:26;8.10;99.90
52495;DHT22;38405;53.212;5.660;2023-10-19T01:58:52;8.10;99.90
52495;DHT22;38405;53.212;5.660;2023-10-19T02:01:20;8.10;99.90
52495;DHT22;38405;53.212;5.660;2023-10-19T02:03:47;8.10;99.90
52495;DHT22;38405;53.212;5.660;2023-10-19T02:06:14;8.10;99.90
52495;DHT22;38405;53.212;5.660;2023-10-19T02:09:00;8.10;99.90
52495;DHT22;38405;53.212;5.660;2023-10-19T02:11:34;8.10;99.90
52495;DHT22;38405;53.212;5.660;2023-10-19T02:14:03;8.10;99.90
52495;DHT22;38405;53.212;5.660;2023-10-19T02:16:38;8.10;99.90
52495;DHT22;38405;53.212;5.660;2023-10-19T02:19:03;8.30;99.90
52495;DHT22;38405;53.212;5.660;2023-10-19T02:21:29;8.20;99.90
52495;DHT22;38405;53.212;5.660;2023-10-19T02:23:56;8.10;99.90
52495;DHT22;38405;53.212;5.660;2023-10-19T02:26:23;8.10;99.90
52495;DHT22;38405;53.212;5.660;2023-10-19T02:28:52;8.10;99.90
52495;DHT22;38405;53.212;5.660;2023-10-19T02:31:19;8.20;99.90
52495;DHT22;38405;53.212;5.660;2023-10-19T02:33:49;8.20;99.90
52495;DHT22;38405;53.212;5.660;2023-10-19T02:36:27;8.10;99.90
52495;DHT22;38405;53.212;5.660;2023-10-19T02:38:57;8.10;99.90
52495;DHT22;38405;53.212;5.660;2023-10-19T02:41:25;8.20;99.90
52495;DHT22;38405;53.212;5.660;2023-10-19T02:43:53;8.20;99.90
52495;DHT22;38405;53.212;5.660;2023-10-19T02:46:35;8.20;99.90
52495;DHT22;38405;53.212;5.660;2023-10-19T02:49:05;8.20;99.90
52495;DHT22;38405;53.212;5.660;2023-10-19T02:51:36;8.20;99.90
52495;DHT22;38405;53.212;5.660;2023-10-19T02:54:02;8.30;99.90
52495;DHT22;38405;53.212;5.660;2023-10-19T02:56:28;8.20;99.90
52495;DHT22;38405;53.212;5.660;2023-10-19T02:58:57;8.20;99.90
52495;DHT22;38405;53.212;5.660;2023-10-19T03:01:30;8.20;99.90
52495;DHT22;38405;53.212;5.660;2023-10-19T03:04:00;8.80;99.90
52495;DHT22;38405;53.212;5.660;2023-10-19T03:06:27;8.30;99.90
52495;DHT22;38405;53.212;5.660;2023-10-19T03:09:00;8.20;99.90
52495;DHT22;38405;53.212;5.660;2023-10-19T03:11:48;8.30;99.90
52495;DHT22;38405;53.212;5.660;2023-10-19T03:14:18;8.30;99.90
52495;DHT22;38405;53.212;5.660;2023-10-19T03:16:44;8.30;99.90
52495;DHT22;38405;53.212;5.660;2023-10-19T03:19:11;8.30;99.90
52495;DHT22;38405;53.212;5.660;2023-10-19T03:21:41;8.30;99.90
52495;DHT22;38405;53.212;5.660;2023-10-19T03:24:14;8.30;99.90
52495;DHT22;38405;53.212;5.660;2023-10-19T03:27:11;8.30;99.90
52495;DHT22;38405;53.212;5.660;2023-10-19T03:29:47;8.30;99.90
52495;DHT22;38405;53.212;5.660;2023-10-19T03:32:25;8.40;99.90
52495;DHT22;38405;53.212;5.660;2023-10-19T03:34:58;8.40;99.90
52495;DHT22;38405;53.212;5.660;2023-10-19T03:37:27;8.40;99.90
52495;DHT22;38405;53.212;5.660;2023-10-19T03:39:55;8.40;99.90
52495;DHT22;38405;53.212;5.660;2023-10-19T03:42:21;8.40;99.90
52495;DHT22;38405;53.212;5.660;2023-10-19T03:44:50;8.40;99.90
52495;DHT22;38405;53.212;5.660;2023-10-19T03:47:19;8.40;99.90
52495;DHT22;38405;53.212;5.660;2023-10-19T03:49:49;8.40;99.90
52495;DHT22;38405;53.212;5.660;2023-10-19T03:52:15;8.50;99.90
52495;DHT22;38405;53.212;5.660;2023-10-19T03:54:41;8.50;99.90
52495;DHT22;38405;53.212;5.660;2023-10-19T03:57:13;8.50;99.90
52495;DHT22;38405;53.212;5.660;2023-10-19T03:59:46;8.50;99.90
52495;DHT22;38405;53.212;5.660;2023-10-19T04:02:15;8.50;99.90
52495;DHT22;38405;53.212;5.660;2023-10-19T04:04:47;8.60;99.90
52495;DHT22;38405;53.212;5.660;2023-10-19T04:07:18;8.60;99.90
52495;DHT22;38405;53.212;5.660;2023-10-19T04:09:51;8.60;99.90
52495;DHT22;38405;53.212;5.660;2023-10-19T04:12:33;8.50;99.90
52495;DHT22;38405;53.212;5.660;2023-10-19T04:15:02;8.80;99.90
52495;DHT22;38405;53.212;5.660;2023-10-19T04:17:44;8.60;99.90
52495;DHT22;38405;53.212;5.660;2023-10-19T04:20:11;8.60;99.90
52495;DHT22;38405;53.212;5.660;2023-10-19T04:22:40;8.60;99.90
52495;DHT22;38405;53.212;5.660;2023-10-19T04:25:06;8.60;99.90
52495;DHT22;38405;53.212;5.660;2023-10-19T04:27:32;8.60;99.90
52495;DHT22;38405;53.212;5.660;2023-10-19T04:30:01;8.60;99.90
52495;DHT22;38405;53.212;5.660;2023-10-19T04:32:27;8.60;99.90
52495;DHT22;38405;53.212;5.660;2023-10-19T04:34:53;8.70;99.90
52495;DHT22;38405;53.212;5.660;2023-10-19T04:37:19;8.60;99.90
52495;DHT22;38405;53.212;5.660;2023-10-19T04:39:45;8.70;99.90
52495;DHT22;38405;53.212;5.660;2023-10-19T04:42:11;8.60;99.90
52495;DHT22;38405;53.212;5.660;2023-10-19T04:44:37;8.70;99.90
52495;DHT22;38405;53.212;5.660;2023-10-19T04:47:03;8.90;99.90
52495;DHT22;38405;53.212;5.660;2023-10-19T04:49:29;8.70;99.90
52495;DHT22;38405;53.212;5.660;2023-10-19T04:51:54;8.70;99.90
52495;DHT22;38405;53.212;5.660;2023-10-19T04:54:20;8.70;99.90
52495;DHT22;38405;53.212;5.660;2023-10-19T04:56:46;8.70;99.90
52495;DHT22;38405;53.212;5.660;2023-10-19T04:59:11;8.80;99.90
52495;DHT22;38405;53.212;5.660;2023-10-19T05:01:37;8.80;99.90
52495;DHT22;38405;53.212;5.660;2023-10-19T05:04:03;8.80;99.90
52495;DHT22;38405;53.212;5.660;2023-10-19T05:06:28;8.80;99.90
52495;DHT22;38405;53.212;5.660;2023-10-19T05:08:54;8.80;99.90
52495;DHT22;38405;53.212;5.660;2023-10-19T05:11:20;8.80;99.90
52495;DHT22;38405;53.212;5.660;2023-10-19T05:13:46;8.80;99.90
52495;DHT22;38405;53.212;5.660;2023-10-19T05:16:11;8.90;99.90
52495;DHT22;38405;53.212;5.660;2023-10-19T05:18:37;8.80;99.90
52495;DHT22;38405;53.212;5.660;2023-10-19T05:21:04;8.90;99.90
52495;DHT22;38405;53.212;5.660;2023-10-19T05:23:30;9.30;99.90
52495;DHT22;38405;53.212;5.660;2023-10-19T05:26:04;8.90;99.90
52495;DHT22;38405;53.212;5.660;2023-10-19T05:28:30;9.00;99.90
52495;DHT22;38405;53.212;5.660;2023-10-19T05:30:57;9.00;99.90
52495;DHT22;38405;53.212;5.660;2023-10-19T05:33:24;9.00;99.90
52495;DHT22;38405;53.212;5.660;2023-10-19T05:35:50;9.00;99.90
52495;DHT22;38405;53.212;5.660;2023-10-19T05:38:17;9.30;99.90
52495;DHT22;38405;53.212;5.660;2023-10-19T05:40:44;9.10;99.90
52495;DHT22;38405;53.212;5.660;2023-10-19T05:43:15;9.10;99.90
52495;DHT22;38405;53.212;5.660;2023-10-19T05:45:41;9.10;99.90
52495;DHT22;38405;53.212;5.660;2023-10-19T05:48:10;9.10;99.90
52495;DHT22;38405;53.212;5.660;2023-10-19T05:50:37;9.10;99.90
52495;DHT22;38405;53.212;5.660;2023-10-19T05:53:03;9.40;99.90
52495;DHT22;38405;53.212;5.660;2023-10-19T05:55:30;9.10;99.90
52495;DHT22;38405;53.212;5.660;2023-10-19T05:57:56;9.10;99.90
52495;DHT22;38405;53.212;5.660;2023-10-19T06:00:22;9.10;99.90
52495;DHT22;38405;53.212;5.660;2023-10-19T06:02:51;9.10;99.90
52495;DHT22;38405;53.212;5.660;2023-10-19T06:05:18;9.20;99.90
52495;DHT22;38405;53.212;5.660;2023-10-19T06:07:48;9.10;99.90
52495;DHT22;38405;53.212;5.660;2023-10-19T06:10:16;9.20;99.90
52495;DHT22;38405;53.212;5.660;2023-10-19T06:12:47;9.20;99.90
52495;DHT22;38405;53.212;5.660;2023-10-19T06:15:14;9.20;99.90
52495;DHT22;38405;53.212;5.660;2023-10-19T06:17:40;9.20;99.90
52495;DHT22;38405;53.212;5.660;2023-10-19T06:20:07;9.20;99.90
52495;DHT22;38405;53.212;5.660;2023-10-19T06:22:58;9.20;99.90
52495;DHT22;38405;53.212;5.660;2023-10-19T06:25:30;9.20;99.90
52495;DHT22;38405;53.212;5.660;2023-10-19T06:27:56;9.30;99.90
52495;DHT22;38405;53.212;5.660;2023-10-19T06:30:23;9.20;99.90
52495;DHT22;38405;53.212;5.660;2023-10-19T06:33:08;9.20;99.90
52495;DHT22;38405;53.212;5.660;2023-10-19T06:35:34;9.20;99.90
52495;DHT22;38405;53.212;5.660;2023-10-19T06:38:01;9.30;99.90
52495;DHT22;38405;53.212;5.660;2023-10-19T06:40:29;9.20;99.90
52495;DHT22;38405;53.212;5.660;2023-10-19T06:42:55;9.30;99.90
52495;DHT22;38405;53.212;5.660;2023-10-19T06:45:21;9.20;99.90
52495;DHT22;38405;53.212;5.660;2023-10-19T06:47:49;9.30;99.90
52495;DHT22;38405;53.212;5.660;2023-10-19T06:50:20;9.40;99.90
52495;DHT22;38405;53.212;5.660;2023-10-19T06:52:46;9.30;99.90
52495;DHT22;38405;53.212;5.660;2023-10-19T06:55:13;9.50;99.90
52495;DHT22;38405;53.212;5.660;2023-10-19T06:57:44;9.40;99.90
52495;DHT22;38405;53.212;5.660;2023-10-19T07:00:11;9.40;99.90
52495;DHT22;38405;53.212;5.660;2023-10-19T07:02:40;9.40;99.90
52495;DHT22;38405;53.212;5.660;2023-10-19T07:05:07;9.40;99.90
52495;DHT22;38405;53.212;5.660;2023-10-19T07:07:36;9.40;99.90
52495;DHT22;38405;53.212;5.660;2023-10-19T07:10:04;9.40;99.90
52495;DHT22;38405;53.212;5.660;2023-10-19T07:12:29;9.40;99.90
52495;DHT22;38405;53.212;5.660;2023-10-19T07:14:56;9.40;99.90
52495;DHT22;38405;53.212;5.660;2023-10-19T07:17:26;9.40;99.90
52495;DHT22;38405;53.212;5.660;2023-10-19T07:19:53;9.40;99.90
52495;DHT22;38405;53.212;5.660;2023-10-19T07:22:21;9.50;99.90
52495;DHT22;38405;53.212;5.660;2023-10-19T07:24:51;9.50;99.90
52495;DHT22;38405;53.212;5.660;2023-10-19T07:27:16;9.50;99.90
52495;DHT22;38405;53.212;5.660;2023-10-19T07:29:45;9.60;99.90
52495;DHT22;38405;53.212;5.660;2023-10-19T07:32:12;9.60;99.90
52495;DHT22;38405;53.212;5.660;2023-10-19T07:34:39;9.60;99.90
52495;DHT22;38405;53.212;5.660;2023-10-19T07:37:05;9.70;99.90
52495;DHT22;38405;53.212;5.660;2023-10-19T07:39:32;9.60;99.90
52495;DHT22;38405;53.212;5.660;2023-10-19T07:41:59;9.70;99.90
52495;DHT22;38405;53.212;5.660;2023-10-19T07:44:25;9.70;99.90
52495;DHT22;38405;53.212;5.660;2023-10-19T07:46:51;9.70;99.90
52495;DHT22;38405;53.212;5.660;2023-10-19T07:49:17;9.70;99.90
52495;DHT22;38405;53.212;5.660;2023-10-19T07:51:49;9.70;99.90
52495;DHT22;38405;53.212;5.660;2023-10-19T07:54:15;9.70;99.90
52495;DHT22;38405;53.212;5.660;2023-10-19T07:56:41;9.70;99.90
52495;DHT22;38405;53.212;5.660;2023-10-19T07:59:07;9.60;99.90
52495;DHT22;38405;53.212;5.660;2023-10-19T08:01:33;9.70;99.90
52495;DHT22;38405;53.212;5.660;2023-10-19T08:03:58;9.80;99.90
52495;DHT22;38405;53.212;5.660;2023-10-19T08:06:24;9.70;99.90
52495;DHT22;38405;53.212;5.660;2023-10-19T08:08:50;9.70;99.90
52495;DHT22;38405;53.212;5.660;2023-10-19T08:11:15;9.70;99.90
52495;DHT22;38405;53.212;5.660;2023-10-19T08:13:42;9.70;99.90
52495;DHT22;38405;53.212;5.660;2023-10-19T08:16:08;9.70;99.90
52495;DHT22;38405;53.212;5.660;2023-10-19T08:18:34;9.70;99.90
52495;DHT22;38405;53.212;5.660;2023-10-19T08:21:03;9.80;99.90
52495;DHT22;38405;53.212;5.660;2023-10-19T08:23:29;9.80;99.90
52495;DHT22;38405;53.212;5.660;2023-10-19T08:25:57;9.80;99.90
52495;DHT22;38405;53.212;5.660;2023-10-19T08:28:24;9.90;99.90
52495;DHT22;38405;53.212;5.660;2023-10-19T08:30:49;9.90;99.90
52495;DHT22;38405;53.212;5.660;2023-10-19T08:33:27;9.90;99.90
52495;DHT22;38405;53.212;5.660;2023-10-19T08:35:53;9.90;99.90
52495;DHT22;38405;53.212;5.660;2023-10-19T08:38:23;10.00;99.90
52495;DHT22;38405;53.212;5.660;2023-10-19T08:40:50;10.10;99.90
52495;DHT22;38405;53.212;5.660;2023-10-19T08:43:17;10.00;99.90
52495;DHT22;38405;53.212;5.660;2023-10-19T08:45:44;10.00;99.90
52495;DHT22;38405;53.212;5.660;2023-10-19T08:48:10;10.10;99.90
52495;DHT22;38405;53.212;5.660;2023-10-19T08:50:37;10.10;99.90
52495;DHT22;38405;53.212;5.660;2023-10-19T08:53:07;10.10;99.90
52495;DHT22;38405;53.212;5.660;2023-10-19T08:55:34;10.20;99.90
52495;DHT22;38405;53.212;5.660;2023-10-19T08:58:02;10.20;99.90
52495;DHT22;38405;53.212;5.660;2023-10-19T09:00:48;10.20;99.90
52495;DHT22;38405;53.212;5.660;2023-10-19T09:03:14;10.30;99.90
52495;DHT22;38405;53.212;5.660;2023-10-19T09:05:45;10.30;99.90
52495;DHT22;38405;53.212;5.660;2023-10-19T09:08:18;10.30;99.90
52495;DHT22;38405;53.212;5.660;2023-10-19T09:10:45;10.40;99.90
52495;DHT22;38405;53.212;5.660;2023-10-19T09:13:11;10.40;99.90
52495;DHT22;38405;53.212;5.660;2023-10-19T09:15:39;10.40;99.90
52495;DHT22;38405;53.212;5.660;2023-10-19T09:18:22;10.50;99.90
52495;DHT22;38405;53.212;5.660;2023-10-19T09:20:49;10.50;99.90
52495;DHT22;38405;53.212;5.660;2023-10-19T09:23:25;10.70;99.90
52495;DHT22;38405;53.212;5.660;2023-10-19T09:25:57;10.50;99.90
52495;DHT22;38405;53.212;5.660;2023-10-19T09:28:24;10.50;99.90
52495;DHT22;38405;53.212;5.660;2023-10-19T09:30:50;10.50;99.90
52495;DHT22;38405;53.212;5.660;2023-10-19T09:33:20;10.50;99.90
52495;DHT22;38405;53.212;5.660;2023-10-19T09:35:48;10.50;99.90
52495;DHT22;38405;53.212;5.660;2023-10-19T09:38:18;10.50;99.90
52495;DHT22;38405;53.212;5.660;2023-10-19T09:40:54;10.50;99.90
52495;DHT22;38405;53.212;5.660;2023-10-19T09:43:43;10.50;99.90
52495;DHT22;38405;53.212;5.660;2023-10-19T09:46:11;10.50;99.90
52495;DHT22;38405;53.212;5.660;2023-10-19T09:48:47;10.80;99.90
52495;DHT22;38405;53.212;5.660;2023-10-19T09:51:17;10.70;99.90
52495;DHT22;38405;53.212;5.660;2023-10-19T09:53:49;10.70;99.90
52495;DHT22;38405;53.212;5.660;2023-10-19T09:56:24;10.80;99.90
52495;DHT22;38405;53.212;5.660;2023-10-19T09:58:55;10.80;99.90
52495;DHT22;38405;53.212;5.660;2023-10-19T10:01:23;10.90;99.90
52495;DHT22;38405;53.212;5.660;2023-10-19T10:03:51;10.90;99.90
52495;DHT22;38405;53.212;5.660;2023-10-19T10:06:30;10.90;99.90
52495;DHT22;38405;53.212;5.660;2023-10-19T10:08:57;10.90;99.90
52495;DHT22;38405;53.212;5.660;2023-10-19T10:11:25;10.90;99.90
52495;DHT22;38405;53.212;5.660;2023-10-19T10:13:52;10.90;99.90
52495;DHT22;38405;53.212;5.660;2023-10-19T10:16:22;11.00;99.90
52495;DHT22;38405;53.212;5.660;2023-10-19T10:18:49;11.00;99.90
52495;DHT22;38405;53.212;5.660;2023-10-19T10:21:22;11.10;99.90
52495;DHT22;38405;53.212;5.660;2023-10-19T10:23:55;11.20;99.90
52495;DHT22;38405;53.212;5.660;2023-10-19T10:26:27;11.20;99.90
52495;DHT22;38405;53.212;5.660;2023-10-19T10:29:21;11.30;99.90
52495;DHT22;38405;53.212;5.660;2023-10-19T10:31:49;11.30;99.90
52495;DHT22;38405;53.212;5.660;2023-10-19T10:37:04;11.30;99.90
52495;DHT22;38405;53.212;5.660;2023-10-19T10:39:31;11.30;99.90
52495;DHT22;38405;53.212;5.660;2023-10-19T10:41:58;11.40;99.90
52495;DHT22;38405;53.212;5.660;2023-10-19T10:44:39;11.30;99.90
52495;DHT22;38405;53.212;5.660;2023-10-19T10:47:23;11.30;99.90
52495;DHT22;38405;53.212;5.660;2023-10-19T10:50:00;11.40;99.90
52495;DHT22;38405;53.212;5.660;2023-10-19T10:52:33;11.40;99.90
52495;DHT22;38405;53.212;5.660;2023-10-19T10:55:10;11.50;99.90
52495;DHT22;38405;53.212;5.660;2023-10-19T10:57:37;11.50;99.90
52495;DHT22;38405;53.212;5.660;2023-10-19T11:00:06;11.50;99.90
52495;DHT22;38405;53.212;5.660;2023-10-19T11:02:41;11.60;99.90
52495;DHT22;38405;53.212;5.660;2023-10-19T11:05:11;11.70;99.90
52495;DHT22;38405;53.212;5.660;2023-10-19T11:07:39;11.90;99.90
52495;DHT22;38405;53.212;5.660;2023-10-19T11:10:05;12.00;99.90
52495;DHT22;38405;53.212;5.660;2023-10-19T11:12:35;12.20;99.90
52495;DHT22;38405;53.212;5.660;2023-10-19T11:15:01;12.40;99.90
52495;DHT22;38405;53.212;5.660;2023-10-19T11:17:42;12.70;99.90
52495;DHT22;38405;53.212;5.660;2023-10-19T11:20:08;12.80;99.90
52495;DHT22;38405;53.212;5.660;2023-10-19T11:22:51;12.90;99.90
52495;DHT22;38405;53.212;5.660;2023-10-19T11:25:20;12.80;99.90
52495;DHT22;38405;53.212;5.660;2023-10-19T11:27:45;12.80;99.90
52495;DHT22;38405;53.212;5.660;2023-10-19T11:30:12;12.90;99.90
52495;DHT22;38405;53.212;5.660;2023-10-19T11:32:39;12.80;99.90
52495;DHT22;38405;53.212;5.660;2023-10-19T11:35:05;12.80;99.90
52495;DHT22;38405;53.212;5.660;2023-10-19T11:37:53;12.70;99.90
52495;DHT22;38405;53.212;5.660;2023-10-19T11:40:23;12.70;99.90
52495;DHT22;38405;53.212;5.660;2023-10-19T11:42:52;12.80;99.90
52495;DHT22;38405;53.212;5.660;2023-10-19T11:45:21;12.80;99.90
52495;DHT22;38405;53.212;5.660;2023-10-19T11:47:49;13.00;99.90
52495;DHT22;38405;53.212;5.660;2023-10-19T11:50:16;12.80;99.90
52495;DHT22;38405;53.212;5.660;2023-10-19T11:52:43;12.90;99.90
52495;DHT22;38405;53.212;5.660;2023-10-19T11:55:11;12.80;99.90
52495;DHT22;38405;53.212;5.660;2023-10-19T11:57:39;12.80;99.90
52495;DHT22;38405;53.212;5.660;2023-10-19T12:00:06;12.70;99.90
52495;DHT22;38405;53.212;5.660;2023-10-19T12:02:36;12.70;99.90
52495;DHT22;38405;53.212;5.660;2023-10-19T12:05:04;12.70;99.90
52495;DHT22;38405;53.212;5.660;2023-10-19T12:07:30;12.70;99.90
52495;DHT22;38405;53.212;5.660;2023-10-19T12:09:57;12.60;99.90
52495;DHT22;38405;53.212;5.660;2023-10-19T12:12:23;12.70;99.90
52495;DHT22;38405;53.212;5.660;2023-10-19T12:14:49;12.60;99.90
52495;DHT22;38405;53.212;5.660;2023-10-19T12:17:15;12.50;99.90
52495;DHT22;38405;53.212;5.660;2023-10-19T12:19:43;12.40;99.90
52495;DHT22;38405;53.212;5.660;2023-10-19T12:22:08;12.30;99.90
52495;DHT22;38405;53.212;5.660;2023-10-19T12:24:34;12.20;99.90
52495;DHT22;38405;53.212;5.660;2023-10-19T12:26:59;12.20;99.90
52495;DHT22;38405;53.212;5.660;2023-10-19T12:29:25;12.10;99.90
52495;DHT22;38405;53.212;5.660;2023-10-19T12:31:51;12.00;99.90
52495;DHT22;38405;53.212;5.660;2023-10-19T12:34:16;12.00;99.90
52495;DHT22;38405;53.212;5.660;2023-10-19T12:36:42;12.00;99.90
52495;DHT22;38405;53.212;5.660;2023-10-19T12:39:11;11.90;99.90
52495;DHT22;38405;53.212;5.660;2023-10-19T12:41:57;11.90;99.90
52495;DHT22;38405;53.212;5.660;2023-10-19T12:44:23;11.90;99.90
52495;DHT22;38405;53.212;5.660;2023-10-19T12:46:48;11.80;99.90
52495;DHT22;38405;53.212;5.660;2023-10-19T12:49:14;11.70;99.90
52495;DHT22;38405;53.212;5.660;2023-10-19T12:51:41;11.70;99.90
52495;DHT22;38405;53.212;5.660;2023-10-19T12:54:11;11.70;99.90
52495;DHT22;38405;53.212;5.660;2023-10-19T12:56:39;11.60;99.90
52495;DHT22;38405;53.212;5.660;2023-10-19T12:59:04;11.60;99.90
52495;DHT22;38405;53.212;5.660;2023-10-19T13:01:34;11.60;99.90
52495;DHT22;38405;53.212;5.660;2023-10-19T13:04:00;11.60;99.90
52495;DHT22;38405;53.212;5.660;2023-10-19T13:06:30;11.60;99.90
52495;DHT22;38405;53.212;5.660;2023-10-19T13:08:57;11.60;99.90
52495;DHT22;38405;53.212;5.660;2023-10-19T13:11:23;11.50;99.90
52495;DHT22;38405;53.212;5.660;2023-10-19T13:13:48;11.60;99.90
52495;DHT22;38405;53.212;5.660;2023-10-19T13:16:15;11.30;99.90
52495;DHT22;38405;53.212;5.660;2023-10-19T13:18:41;11.20;99.90
52495;DHT22;38405;53.212;5.660;2023-10-19T13:21:07;11.20;99.90
52495;DHT22;38405;53.212;5.660;2023-10-19T13:23:43;11.20;99.90
52495;DHT22;38405;53.212;5.660;2023-10-19T13:26:10;11.10;99.90
52495;DHT22;38405;53.212;5.660;2023-10-19T13:28:41;11.10;99.90
52495;DHT22;38405;53.212;5.660;2023-10-19T13:31:08;11.10;99.90
52495;DHT22;38405;53.212;5.660;2023-10-19T13:33:39;11.00;99.90
52495;DHT22;38405;53.212;5.660;2023-10-19T13:36:07;11.00;99.90
52495;DHT22;38405;53.212;5.660;2023-10-19T13:38:33;11.00;99.90
52495;DHT22;38405;53.212;5.660;2023-10-19T13:40:58;11.00;99.90
52495;DHT22;38405;53.212;5.660;2023-10-19T13:43:24;11.10;99.90
52495;DHT22;38405;53.212;5.660;2023-10-19T13:45:50;10.90;99.90
52495;DHT22;38405;53.212;5.660;2023-10-19T13:48:18;10.90;99.90
52495;DHT22;38405;53.212;5.660;2023-10-19T13:50:47;10.80;99.90
52495;DHT22;38405;53.212;5.660;2023-10-19T13:53:17;10.80;99.90
52495;DHT22;38405;53.212;5.660;2023-10-19T13:55:43;10.70;99.90
52495;DHT22;38405;53.212;5.660;2023-10-19T13:58:09;10.70;99.90
52495;DHT22;38405;53.212;5.660;2023-10-19T14:00:35;10.70;99.90
52495;DHT22;38405;53.212;5.660;2023-10-19T14:03:03;10.70;99.90
52495;DHT22;38405;53.212;5.660;2023-10-19T14:05:36;10.70;99.90
52495;DHT22;38405;53.212;5.660;2023-10-19T14:08:03;10.60;99.90
52495;DHT22;38405;53.212;5.660;2023-10-19T14:10:32;10.60;99.90
52495;DHT22;38405;53.212;5.660;2023-10-19T14:12:57;10.60;99.90
52495;DHT22;38405;53.212;5.660;2023-10-19T14:15:27;10.60;99.90
52495;DHT22;38405;53.212;5.660;2023-10-19T14:17:56;10.60;99.90
52495;DHT22;38405;53.212;5.660;2023-10-19T14:20:23;10.50;99.90
52495;DHT22;38405;53.212;5.660;2023-10-19T14:22:49;10.50;99.90
52495;DHT22;38405;53.212;5.660;2023-10-19T14:25:16;10.50;99.90
52495;DHT22;38405;53.212;5.660;2023-10-19T14:27:42;10.50;99.90
52495;DHT22;38405;53.212;5.660;2023-10-19T14:30:13;10.40;99.90
52495;DHT22;38405;53.212;5.660;2023-10-19T14:32:44;10.40;99.90
52495;DHT22;38405;53.212;5.660;2023-10-19T14:35:14;10.40;99.90
52495;DHT22;38405;53.212;5.660;2023-10-19T14:37:42;10.40;99.90
52495;DHT22;38405;53.212;5.660;2023-10-19T14:40:13;10.40;99.90
52495;DHT22;38405;53.212;5.660;2023-10-19T14:42:41;10.40;99.90
52495;DHT22;38405;53.212;5.660;2023-10-19T14:45:19;10.40;99.90
52495;DHT22;38405;53.212;5.660;2023-10-19T14:47:49;10.40;99.90
52495;DHT22;38405;53.212;5.660;2023-10-19T14:50:17;10.40;99.90
52495;DHT22;38405;53.212;5.660;2023-10-19T14:52:45;10.30;99.90
52495;DHT22;38405;53.212;5.660;2023-10-19T14:55:12;10.30;99.90
52495;DHT22;38405;53.212;5.660;2023-10-19T14:57:44;10.30;99.90
52495;DHT22;38405;53.212;5.660;2023-10-19T15:00:12;10.30;99.90
52495;DHT22;38405;53.212;5.660;2023-10-19T15:02:50;10.30;99.90
52495;DHT22;38405;53.212;5.660;2023-10-19T15:05:17;10.30;99.90
52495;DHT22;38405;53.212;5.660;2023-10-19T15:07:45;10.30;99.90
52495;DHT22;38405;53.212;5.660;2023-10-19T15:10:12;10.30;99.90
52495;DHT22;38405;53.212;5.660;2023-10-19T15:12:41;10.40;99.90
52495;DHT22;38405;53.212;5.660;2023-10-19T15:15:08;10.30;99.90
52495;DHT22;38405;53.212;5.660;2023-10-19T15:17:43;10.20;99.90
52495;DHT22;38405;53.212;5.660;2023-10-19T15:20:11;10.30;99.90
52495;DHT22;38405;53.212;5.660;2023-10-19T15:22:40;10.20;99.90
52495;DHT22;38405;53.212;5.660;2023-10-19T15:25:07;10.20;99.90
52495;DHT22;38405;53.212;5.660;2023-10-19T15:27:36;10.20;99.90
52495;DHT22;38405;53.212;5.660;2023-10-19T15:30:03;10.10;99.90
52495;DHT22;38405;53.212;5.660;2023-10-19T15:32:31;10.10;99.90
52495;DHT22;38405;53.212;5.660;2023-10-19T15:34:57;10.10;99.90
52495;DHT22;38405;53.212;5.660;2023-10-19T15:37:23;10.00;99.90
52495;DHT22;38405;53.212;5.660;2023-10-19T15:39:52;10.00;99.90
52495;DHT22;38405;53.212;5.660;2023-10-19T15:42:18;10.00;99.90
52495;DHT22;38405;53.212;5.660;2023-10-19T15:44:45;10.10;99.90
52495;DHT22;38405;53.212;5.660;2023-10-19T15:47:13;10.00;99.90
52495;DHT22;38405;53.212;5.660;2023-10-19T15:49:48;10.00;99.90
52495;DHT22;38405;53.212;5.660;2023-10-19T15:52:14;10.00;99.90
52495;DHT22;38405;53.212;5.660;2023-10-19T15:54:43;10.00;99.90
52495;DHT22;38405;53.212;5.660;2023-10-19T15:57:09;10.00;99.90
52495;DHT22;38405;53.212;5.660;2023-10-19T15:59:34;10.00;99.90